createdAt,value
2022-10-17T00:00:25.798Z,7.37
2022-10-17T00:02:25.832Z,7.33
2022-10-17T00:04:25.843Z,7.29
2022-10-17T00:06:25.809Z,7.28
2022-10-17T00:08:25.812Z,7.22
2022-10-17T00:10:25.835Z,7.27
2022-10-17T00:12:48.904Z,7.2
2022-10-17T00:14:48.898Z,7.13
2022-10-17T00:16:48.896Z,7.09
2022-10-17T00:18:48.966Z,7.11
2022-10-17T00:20:48.877Z,7.07
2022-10-17T00:22:48.889Z,7.1
2022-10-17T00:24:48.929Z,7.09
2022-10-17T00:26:48.873Z,7.04
2022-10-17T00:28:25.785Z,7
2022-10-17T00:30:25.785Z,7.01
2022-10-17T00:32:25.831Z,6.93
2022-10-17T00:34:25.785Z,6.97
2022-10-17T00:36:25.767Z,6.96
2022-10-17T00:38:25.732Z,6.97
2022-10-17T00:40:25.774Z,6.94
2022-10-17T00:43:44.723Z,6.92
2022-10-17T00:45:44.726Z,6.89
2022-10-17T00:47:44.744Z,6.83
2022-10-17T00:49:44.755Z,6.85
2022-10-17T00:51:44.714Z,6.72
2022-10-17T00:53:44.705Z,6.8
2022-10-17T00:55:44.731Z,6.77
2022-10-17T00:59:01.020Z,6.75
2022-10-17T01:01:01.114Z,6.71
2022-10-17T01:03:01.043Z,6.71
2022-10-17T01:05:01.056Z,6.65
2022-10-17T01:07:01.066Z,6.61
2022-10-17T01:09:01.057Z,6.6
2022-10-17T01:11:01.269Z,6.57
2022-10-17T01:13:58.550Z,6.57
2022-10-17T01:15:58.530Z,6.45
2022-10-17T01:17:58.521Z,6.45
2022-10-17T01:19:58.502Z,6.4
2022-10-17T01:21:58.585Z,6.42
2022-10-17T01:23:58.515Z,6.42
2022-10-17T01:25:58.546Z,6.43
2022-10-17T01:28:40.787Z,6.35
2022-10-17T01:30:40.713Z,6.39
2022-10-17T01:32:40.713Z,6.38
2022-10-17T01:34:40.726Z,6.28
2022-10-17T01:36:40.696Z,6.32
2022-10-17T01:38:40.731Z,6.34
2022-10-17T01:40:40.770Z,6.29
2022-10-17T01:42:40.696Z,6.19
2022-10-17T01:44:03.723Z,6.2
2022-10-17T01:46:03.781Z,6.16
2022-10-17T01:48:03.738Z,6.12
2022-10-17T01:50:03.770Z,6.14
2022-10-17T01:52:03.734Z,6.15
2022-10-17T01:54:03.765Z,6.16
2022-10-17T01:56:03.759Z,6.19
2022-10-17T01:59:37.277Z,6.2
2022-10-17T02:01:37.459Z,6.09
2022-10-17T02:03:37.408Z,5.99
2022-10-17T02:05:37.413Z,5.85
2022-10-17T02:07:37.287Z,5.85
2022-10-17T02:09:37.622Z,5.87
2022-10-17T02:11:37.337Z,6.01
2022-10-17T02:14:28.414Z,6.01
2022-10-17T02:16:28.540Z,6.12
2022-10-17T02:18:28.397Z,6.05
2022-10-17T02:20:28.415Z,6.01
2022-10-17T02:22:28.418Z,5.97
2022-10-17T02:24:28.456Z,5.95
2022-10-17T02:26:28.433Z,5.94
2022-10-17T02:30:17.199Z,5.92
2022-10-17T02:32:17.342Z,5.82
2022-10-17T02:34:17.185Z,5.68
2022-10-17T02:36:17.186Z,5.74
2022-10-17T02:38:17.184Z,5.76
2022-10-17T02:40:17.174Z,5.55
2022-10-17T02:42:17.203Z,5.47
2022-10-17T02:45:21.277Z,5.62
2022-10-17T02:47:21.229Z,5.54
2022-10-17T02:49:21.284Z,5.6
2022-10-17T02:51:21.222Z,5.56
2022-10-17T02:53:21.228Z,5.5
2022-10-17T02:55:21.223Z,5.4
2022-10-17T02:57:21.254Z,5.43
2022-10-17T02:59:43.412Z,5.48
2022-10-17T03:01:43.502Z,5.45
2022-10-17T03:03:43.394Z,5.49
2022-10-17T03:05:43.391Z,5.46
2022-10-17T03:07:43.404Z,5.44
2022-10-17T03:09:43.400Z,5.46
2022-10-17T03:11:43.435Z,5.43
2022-10-17T03:13:43.448Z,5.46
2022-10-17T03:15:04.082Z,5.45
2022-10-17T03:17:04.062Z,5.37
2022-10-17T03:19:04.115Z,5.36
2022-10-17T03:21:04.063Z,5.34
2022-10-17T03:23:04.072Z,5.21
2022-10-17T03:25:04.156Z,5.29
2022-10-17T03:27:04.061Z,5.35
2022-10-17T03:30:49.096Z,5.14
2022-10-17T03:32:48.992Z,5.11
2022-10-17T03:34:48.930Z,5.15
2022-10-17T03:36:48.912Z,5.08
2022-10-17T03:38:48.924Z,5.07
2022-10-17T03:40:48.881Z,4.92
2022-10-17T03:42:48.923Z,4.88
2022-10-17T03:45:47.307Z,4.93
2022-10-17T03:47:47.381Z,5
2022-10-17T03:49:47.318Z,4.93
2022-10-17T03:51:47.298Z,4.89
2022-10-17T03:53:47.323Z,4.9
2022-10-17T03:55:47.299Z,4.97
2022-10-17T03:57:47.282Z,4.95
2022-10-17T04:01:07.644Z,4.86
2022-10-17T04:03:07.594Z,4.85
2022-10-17T04:05:07.624Z,4.8
2022-10-17T04:07:07.576Z,4.86
2022-10-17T04:09:07.627Z,4.95
2022-10-17T04:11:07.614Z,4.95
2022-10-17T04:13:07.568Z,4.98
2022-10-17T04:15:58.696Z,4.83
2022-10-17T04:17:58.742Z,4.83
2022-10-17T04:19:58.723Z,4.82
2022-10-17T04:21:58.704Z,4.76
2022-10-17T04:23:58.712Z,4.78
2022-10-17T04:25:58.677Z,4.73
2022-10-17T04:27:58.721Z,4.64
2022-10-17T04:30:55.066Z,4.75
2022-10-17T04:32:55.101Z,4.74
2022-10-17T04:34:55.072Z,4.64
2022-10-17T04:36:55.079Z,4.57
2022-10-17T04:38:55.069Z,4.63
2022-10-17T04:40:55.079Z,4.66
2022-10-17T04:42:55.120Z,4.71
2022-10-17T04:46:06.819Z,4.72
2022-10-17T04:48:06.797Z,4.76
2022-10-17T04:50:06.793Z,4.59
2022-10-17T04:52:06.811Z,4.75
2022-10-17T04:54:06.838Z,4.79
2022-10-17T04:56:06.790Z,4.97
2022-10-17T04:58:06.774Z,4.98
2022-10-17T05:01:40.951Z,5.05
2022-10-17T05:03:40.833Z,5.11
2022-10-17T05:05:40.774Z,5.16
2022-10-17T05:07:40.824Z,5.18
2022-10-17T05:09:40.830Z,5.17
2022-10-17T05:11:40.786Z,5.06
2022-10-17T05:13:40.770Z,4.29
2022-10-17T05:16:51.331Z,4.69
2022-10-17T05:18:52.758Z,4.49
2022-10-17T05:20:51.322Z,4.21
2022-10-17T05:22:51.376Z,4.56
2022-10-17T05:24:51.345Z,4.67
2022-10-17T05:26:51.379Z,4.32
2022-10-17T05:28:51.362Z,4.46
2022-10-17T05:32:15.275Z,4.63
2022-10-17T05:34:15.236Z,4.53
2022-10-17T05:36:15.340Z,4.54
2022-10-17T05:38:15.248Z,4.95
2022-10-17T05:40:15.280Z,5.42
2022-10-17T05:42:15.267Z,5.75
2022-10-17T05:44:15.219Z,6.1
2022-10-17T05:47:18.063Z,6.28
2022-10-17T05:49:31.799Z,6.54
2022-10-17T05:51:18.030Z,6.55
2022-10-17T05:53:18.092Z,6.31
2022-10-17T05:55:18.078Z,6.44
2022-10-17T05:57:18.093Z,6.68
2022-10-17T05:59:18.052Z,6.74
2022-10-17T06:02:17.084Z,6.5
2022-10-17T06:04:17.051Z,6.6
2022-10-17T06:06:17.009Z,6.33
2022-10-17T06:08:17.145Z,6.62
2022-10-17T06:10:17.003Z,7.15
2022-10-17T06:12:17.019Z,6.86
2022-10-17T06:14:17.061Z,6.72
2022-10-17T06:17:46.719Z,7.34
2022-10-17T06:19:46.718Z,7.39
2022-10-17T06:21:46.706Z,7.64
2022-10-17T06:23:46.746Z,7.7
2022-10-17T06:25:46.717Z,8.02
2022-10-17T06:27:46.743Z,7.93
2022-10-17T06:29:46.697Z,8.22
2022-10-17T06:32:42.847Z,8.22
2022-10-17T06:34:42.863Z,8.16
2022-10-17T06:36:42.839Z,8.14
2022-10-17T06:38:42.840Z,8.45
2022-10-17T06:40:42.854Z,8.64
2022-10-17T06:42:42.861Z,8.74
2022-10-17T06:44:42.871Z,8.25
2022-10-17T06:47:19.211Z,8.31
2022-10-17T06:49:17.183Z,8.22
2022-10-17T06:51:17.417Z,8.16
2022-10-17T06:53:17.190Z,8.76
2022-10-17T06:55:19.571Z,8.85
2022-10-17T06:57:17.177Z,9
2022-10-17T06:59:17.196Z,9.32
2022-10-17T07:01:17.393Z,9.39
2022-10-17T07:03:05.341Z,9.51
2022-10-17T07:05:05.351Z,8.99
2022-10-17T07:07:05.347Z,9.44
2022-10-17T07:09:05.370Z,9.87
2022-10-17T07:11:05.334Z,10.44
2022-10-17T07:13:05.321Z,10.25
2022-10-17T07:15:05.386Z,10.62
2022-10-17T07:18:19.475Z,10.72
2022-10-17T07:20:19.490Z,11.15
2022-10-17T07:22:19.470Z,11.4
2022-10-17T07:24:19.534Z,11.62
2022-10-17T07:26:19.465Z,11.74
2022-10-17T07:28:19.463Z,11.89
2022-10-17T07:30:19.537Z,11.58
2022-10-17T07:32:50.423Z,11.99
2022-10-17T07:34:50.461Z,11.78
2022-10-17T07:36:50.418Z,11.66
2022-10-17T07:38:50.417Z,12.02
2022-10-17T07:40:50.418Z,12.36
2022-10-17T07:42:50.416Z,12.58
2022-10-17T07:44:50.427Z,12.63
2022-10-17T07:48:20.764Z,12.86
2022-10-17T07:50:20.874Z,12.84
2022-10-17T07:52:20.708Z,13.04
2022-10-17T07:54:20.703Z,13.01
2022-10-17T07:56:20.714Z,12.94
2022-10-17T07:58:20.703Z,13.01
2022-10-17T08:00:20.764Z,12.94
2022-10-17T08:03:29.988Z,13.3
2022-10-17T08:05:30.001Z,13.68
2022-10-17T08:07:30.009Z,13.14
2022-10-17T08:09:29.998Z,13.43
2022-10-17T08:11:29.962Z,13.89
2022-10-17T08:13:29.944Z,14.21
2022-10-17T08:15:31.041Z,14.13
2022-10-17T08:19:06.131Z,13.96
2022-10-17T08:21:06.025Z,14.07
2022-10-17T08:23:06.036Z,14.41
2022-10-17T08:25:05.990Z,14.66
2022-10-17T08:27:06.012Z,15
2022-10-17T08:29:06.081Z,14.83
2022-10-17T08:31:05.992Z,15.1
2022-10-17T08:33:34.874Z,15.32
2022-10-17T08:35:34.879Z,15.34
2022-10-17T08:37:34.840Z,15.53
2022-10-17T08:39:34.870Z,15.58
2022-10-17T08:41:34.820Z,15.1
2022-10-17T08:43:35.544Z,14.99
2022-10-17T08:45:34.834Z,15.42
2022-10-17T08:49:12.027Z,15.7
2022-10-17T08:51:11.308Z,16.05
2022-10-17T08:53:11.261Z,16.3
2022-10-17T08:55:11.398Z,16.38
2022-10-17T08:57:11.280Z,16.43
2022-10-17T08:59:11.284Z,16.67
2022-10-17T09:01:13.166Z,16.83
2022-10-17T09:04:05.781Z,16.86
2022-10-17T09:06:05.749Z,16.72
2022-10-17T09:08:05.840Z,16.97
2022-10-17T09:10:05.740Z,17.12
2022-10-17T09:12:05.797Z,16.92
2022-10-17T09:14:05.792Z,17.15
2022-10-17T09:16:05.736Z,16.78
2022-10-17T09:18:53.319Z,16.98
2022-10-17T09:20:53.437Z,17.39
2022-10-17T09:22:53.494Z,17.57
2022-10-17T09:24:53.578Z,17.42
2022-10-17T09:26:53.471Z,17.55
2022-10-17T09:28:53.486Z,17.4
2022-10-17T09:30:53.315Z,17.41
2022-10-17T09:32:53.357Z,17.38
2022-10-17T09:34:39.419Z,17.8
2022-10-17T09:36:39.451Z,17.96
2022-10-17T09:38:39.410Z,18.05
2022-10-17T09:40:39.441Z,18.28
2022-10-17T09:42:39.443Z,18.34
2022-10-17T09:44:39.402Z,18.48
2022-10-17T09:46:39.452Z,18.6
2022-10-17T09:49:33.314Z,18.73
2022-10-17T09:51:33.302Z,18.76
2022-10-17T09:53:33.329Z,18.75
2022-10-17T09:55:33.308Z,18.51
2022-10-17T09:57:33.361Z,18.72
2022-10-17T09:59:33.293Z,18.72
2022-10-17T10:01:33.335Z,18.85
2022-10-17T10:04:41.513Z,19.16
2022-10-17T10:06:34.796Z,19.08
2022-10-17T10:08:34.770Z,19.27
2022-10-17T10:10:34.749Z,19.39
2022-10-17T10:12:34.760Z,19.2
2022-10-17T10:14:34.775Z,19.35
2022-10-17T10:16:34.765Z,19.28
2022-10-17T10:20:14.079Z,19.11
2022-10-17T10:22:14.050Z,19.37
2022-10-17T10:24:14.032Z,19.18
2022-10-17T10:26:14.076Z,18.82
2022-10-17T10:28:14.025Z,18.56
2022-10-17T10:30:14.101Z,18.37
2022-10-17T10:32:14.014Z,18.42
2022-10-17T10:34:53.889Z,18.65
2022-10-17T10:36:53.877Z,18.68
2022-10-17T10:38:53.879Z,18.93
2022-10-17T10:40:53.881Z,18.92
2022-10-17T10:42:53.927Z,18.97
2022-10-17T10:44:53.870Z,19.3
2022-10-17T10:46:53.947Z,19.56
2022-10-17T10:50:21.909Z,19.77
2022-10-17T10:52:21.944Z,19.91
2022-10-17T10:54:21.950Z,19.53
2022-10-17T10:56:21.938Z,18.73
2022-10-17T10:58:21.894Z,18.82
2022-10-17T11:00:21.949Z,17.87
2022-10-17T11:02:22.061Z,18.74
2022-10-17T11:05:30.520Z,19.38
2022-10-17T11:07:30.822Z,19.69
2022-10-17T11:09:31.461Z,19.93
2022-10-17T11:11:30.516Z,20.03
2022-10-17T11:13:30.533Z,19.72
2022-10-17T11:15:30.506Z,18.99
2022-10-17T11:17:30.791Z,19.38
2022-10-17T11:20:43.860Z,19.77
2022-10-17T11:22:43.879Z,19.65
2022-10-17T11:24:43.864Z,19.89
2022-10-17T11:26:43.859Z,19.97
2022-10-17T11:28:43.976Z,20.02
2022-10-17T11:32:43.872Z,19.89
2022-10-17T11:36:13.360Z,19.64
2022-10-17T11:38:13.320Z,19.74
2022-10-17T11:40:13.367Z,19.45
2022-10-17T11:42:13.327Z,19.42
2022-10-17T11:44:13.318Z,19.3
2022-10-17T11:46:13.335Z,19.38
2022-10-17T11:48:13.453Z,19.64
2022-10-17T11:53:23.669Z,19.31
2022-10-17T11:55:23.642Z,19.46
2022-10-17T11:57:24.385Z,19.66
2022-10-17T11:59:23.640Z,19.73
2022-10-17T12:01:23.682Z,19.7
2022-10-17T12:03:23.663Z,19.46
2022-10-17T12:06:08.432Z,19.15
2022-10-17T12:08:08.457Z,19.2
2022-10-17T12:10:08.428Z,19.61
2022-10-17T12:12:08.433Z,19.78
2022-10-17T12:14:08.463Z,19.89
2022-10-17T12:16:08.416Z,19.38
2022-10-17T12:18:08.424Z,19.14
2022-10-17T12:21:42.846Z,18.47
2022-10-17T12:23:40.583Z,18.81
2022-10-17T12:27:40.610Z,18.97
2022-10-17T12:29:40.562Z,19.26
2022-10-17T12:31:40.587Z,19.45
2022-10-17T12:33:40.584Z,19.08
2022-10-17T12:36:00.333Z,19.12
2022-10-17T12:38:00.328Z,18.88
2022-10-17T12:40:00.290Z,19.15
2022-10-17T12:42:00.265Z,18.54
2022-10-17T12:44:00.270Z,19.18
2022-10-17T12:46:00.259Z,19.08
2022-10-17T12:48:00.294Z,19.18
2022-10-17T12:50:00.322Z,18.77
2022-10-17T12:51:56.490Z,18.69
2022-10-17T12:53:56.522Z,18.92
2022-10-17T12:55:56.526Z,19.05
2022-10-17T12:57:56.493Z,18.77
2022-10-17T12:59:58.603Z,19.14
2022-10-17T13:01:56.538Z,19.15
2022-10-17T13:03:56.498Z,18.21
2022-10-17T13:06:45.562Z,18.75
2022-10-17T13:08:45.402Z,18.9
2022-10-17T13:10:46.337Z,18.68
2022-10-17T13:12:45.433Z,18.74
2022-10-17T13:14:45.390Z,19.08
2022-10-17T13:16:45.538Z,18.56
2022-10-17T13:18:45.387Z,18.51
2022-10-17T13:22:10.013Z,18.7
2022-10-17T13:24:09.959Z,18.41
2022-10-17T13:26:10.058Z,18.68
2022-10-17T13:28:09.956Z,18.57
2022-10-17T13:30:10.024Z,18.82
2022-10-17T13:32:09.996Z,18.49
2022-10-17T13:34:09.982Z,18.53
2022-10-17T13:36:40.833Z,18.5
2022-10-17T13:38:41.946Z,18.1
2022-10-17T13:40:49.411Z,18.64
2022-10-17T13:42:40.803Z,18.72
2022-10-17T13:44:43.405Z,18.51
2022-10-17T13:46:40.863Z,18.44
2022-10-17T13:48:40.768Z,18.58
2022-10-17T13:50:44.353Z,18.61
2022-10-17T13:52:07.144Z,18.29
2022-10-17T13:54:07.130Z,18.19
2022-10-17T13:56:27.139Z,18.03
2022-10-17T13:58:07.088Z,18.2
2022-10-17T14:00:08.547Z,17.91
2022-10-17T14:02:07.057Z,17.96
2022-10-17T14:04:09.622Z,18.25
2022-10-17T14:07:41.706Z,18
2022-10-17T14:09:34.048Z,18.19
2022-10-17T14:11:34.006Z,18.13
2022-10-17T14:13:34.080Z,18.21
2022-10-17T14:15:34.025Z,18.22
2022-10-17T14:17:34.089Z,18.19
2022-10-17T14:19:34.014Z,18.12
2022-10-17T14:23:17.864Z,17.76
2022-10-17T14:24:52.646Z,17.67
2022-10-17T14:26:52.677Z,17.62
2022-10-17T14:28:52.708Z,17.8
2022-10-17T14:30:57.377Z,17.73
2022-10-17T14:32:52.697Z,17.74
2022-10-17T14:34:52.646Z,17.66
2022-10-17T14:38:06.434Z,17.45
2022-10-17T14:40:06.352Z,17.43
2022-10-17T14:42:06.383Z,17.4
2022-10-17T14:44:06.410Z,17.36
2022-10-17T14:46:06.316Z,17.1
2022-10-17T14:48:06.326Z,16.95
2022-10-17T14:50:06.363Z,16.93
2022-10-17T14:52:47.497Z,16.85
2022-10-17T14:54:47.501Z,16.79
2022-10-17T14:56:47.545Z,16.75
2022-10-17T14:58:47.534Z,16.71
2022-10-17T15:00:47.570Z,16.56
2022-10-17T15:02:47.433Z,16.47
2022-10-17T15:04:47.418Z,16.39
2022-10-17T15:08:14.899Z,16.17
2022-10-17T15:10:14.947Z,16.08
2022-10-17T15:12:14.891Z,15.93
2022-10-17T15:14:14.899Z,15.87
2022-10-17T15:16:15.146Z,15.82
2022-10-17T15:18:14.894Z,15.71
2022-10-17T15:20:14.938Z,15.6
2022-10-17T15:23:16.150Z,15.32
2022-10-17T15:25:16.147Z,15.18
2022-10-17T15:27:16.210Z,15.08
2022-10-17T15:29:16.154Z,14.99
2022-10-17T15:31:16.140Z,14.9
2022-10-17T15:33:16.167Z,14.85
2022-10-17T15:35:16.129Z,14.63
2022-10-17T15:38:52.299Z,14.33
2022-10-17T15:40:52.455Z,14.17
2022-10-17T15:42:52.301Z,14.15
2022-10-17T15:44:52.378Z,13.99
2022-10-17T15:46:52.385Z,13.87
2022-10-17T15:48:52.311Z,13.92
2022-10-17T15:50:52.279Z,13.94
2022-10-17T15:53:37.463Z,13.88
2022-10-17T15:55:37.500Z,13.71
2022-10-17T15:57:37.442Z,13.79
2022-10-17T15:59:37.513Z,13.65
2022-10-17T16:01:37.470Z,13.52
2022-10-17T16:03:37.435Z,13.37
2022-10-17T16:05:37.464Z,13.28
2022-10-17T16:08:56.899Z,13.24
2022-10-17T16:10:56.869Z,13.21
2022-10-17T16:12:56.871Z,13.08
2022-10-17T16:14:56.873Z,12.99
2022-10-17T16:16:56.872Z,12.99
2022-10-17T16:18:56.914Z,12.97
2022-10-17T16:20:56.910Z,12.98
2022-10-17T16:24:10.855Z,12.76
2022-10-17T16:26:10.903Z,12.61
2022-10-17T16:28:10.840Z,12.65
2022-10-17T16:30:10.898Z,12.52
2022-10-17T16:32:10.817Z,12.39
2022-10-17T16:34:10.886Z,12.29
2022-10-17T16:36:11.189Z,12.17
2022-10-17T16:39:16.343Z,12.21
2022-10-17T16:41:16.325Z,12.21
2022-10-17T16:43:16.219Z,12.2
2022-10-17T16:45:16.266Z,12.21
2022-10-17T16:47:16.223Z,12.18
2022-10-17T16:49:16.419Z,12.11
2022-10-17T16:51:16.255Z,12.02
2022-10-17T16:54:21.149Z,11.99
2022-10-17T16:56:21.150Z,11.95
2022-10-17T16:58:21.164Z,11.87
2022-10-17T17:00:21.158Z,11.9
2022-10-17T17:02:21.306Z,11.83
2022-10-17T17:04:21.092Z,11.87
2022-10-17T17:06:21.132Z,11.83
2022-10-17T17:09:21.942Z,11.74
2022-10-17T17:11:21.740Z,11.6
2022-10-17T17:13:21.787Z,11.63
2022-10-17T17:15:21.863Z,11.51
2022-10-17T17:17:30.095Z,11.57
2022-10-17T17:19:21.778Z,11.51
2022-10-17T17:21:21.724Z,11.58
2022-10-17T17:24:38.343Z,11.58
2022-10-17T17:26:38.277Z,11.45
2022-10-17T17:28:38.344Z,11.42
2022-10-17T17:30:38.310Z,11.36
2022-10-17T17:32:38.293Z,11.44
2022-10-17T17:34:38.247Z,11.4
2022-10-17T17:36:38.240Z,11.43
2022-10-17T17:39:41.937Z,11.42
2022-10-17T17:41:41.616Z,11.34
2022-10-17T17:43:41.711Z,11.38
2022-10-17T17:45:41.618Z,11.41
2022-10-17T17:47:41.618Z,11.26
2022-10-17T17:49:41.613Z,11.33
2022-10-17T17:51:41.651Z,11.29
2022-10-17T17:55:20.337Z,11.08
2022-10-17T17:57:20.327Z,10.99
2022-10-17T17:59:20.292Z,11.1
2022-10-17T18:01:20.566Z,11.1
2022-10-17T18:03:20.307Z,10.93
2022-10-17T18:05:20.646Z,10.91
2022-10-17T18:07:20.312Z,10.76
2022-10-17T18:10:00.303Z,10.78
2022-10-17T18:12:00.159Z,10.78
2022-10-17T18:14:00.296Z,10.64
2022-10-17T18:16:00.131Z,10.66
2022-10-17T18:18:00.193Z,10.59
2022-10-17T18:20:00.145Z,10.5
2022-10-17T18:22:00.183Z,10.5
2022-10-17T18:25:01.004Z,10.44
2022-10-17T18:27:00.810Z,10.37
2022-10-17T18:29:00.834Z,10.4
2022-10-17T18:31:00.814Z,10.36
2022-10-17T18:33:00.948Z,10.37
2022-10-17T18:35:00.864Z,10.32
2022-10-17T18:37:00.811Z,10.21
2022-10-17T18:40:49.988Z,10.11
2022-10-17T18:42:47.834Z,10.09
2022-10-17T18:44:48.014Z,10.11
2022-10-17T18:46:47.979Z,10.05
2022-10-17T18:48:47.786Z,10.03
2022-10-17T18:50:47.837Z,10.08
2022-10-17T18:52:47.796Z,9.99
2022-10-17T18:55:59.477Z,9.94
2022-10-17T18:57:59.256Z,9.9
2022-10-17T18:59:59.237Z,9.81
2022-10-17T19:01:59.436Z,9.77
2022-10-17T19:03:59.111Z,9.73
2022-10-17T19:06:00.486Z,9.72
2022-10-17T19:07:59.227Z,9.72
2022-10-17T19:11:15.946Z,9.67
2022-10-17T19:13:19.337Z,9.61
2022-10-17T19:15:15.965Z,9.5
2022-10-17T19:17:15.919Z,9.52
2022-10-17T19:19:15.985Z,9.54
2022-10-17T19:21:19.241Z,9.57
2022-10-17T19:23:15.951Z,9.58
2022-10-17T19:26:25.036Z,9.57
2022-10-17T19:28:24.978Z,9.58
2022-10-17T19:30:24.814Z,9.58
2022-10-17T19:32:24.761Z,9.52
2022-10-17T19:34:24.664Z,9.35
2022-10-17T19:36:26.341Z,9.2
2022-10-17T19:38:24.667Z,9.27
2022-10-17T19:41:21.289Z,9.33
2022-10-17T19:43:21.293Z,9.39
2022-10-17T19:45:21.303Z,9.33
2022-10-17T19:47:21.683Z,9.29
2022-10-17T19:49:21.358Z,9.27
2022-10-17T19:51:21.367Z,9.2
2022-10-17T19:53:21.385Z,9.17
2022-10-17T19:55:59.623Z,9.15
2022-10-17T19:57:59.628Z,9.07
2022-10-17T19:59:59.553Z,9.01
2022-10-17T20:01:59.566Z,9.07
2022-10-17T20:03:59.549Z,9.03
2022-10-17T20:05:59.521Z,8.95
2022-10-17T20:07:59.505Z,8.73
2022-10-17T20:11:58.977Z,8.69
2022-10-17T20:13:59.001Z,8.71
2022-10-17T20:15:58.984Z,8.8
2022-10-17T20:17:58.965Z,8.82
2022-10-17T20:19:59.021Z,8.63
2022-10-17T20:21:59.106Z,8.77
2022-10-17T20:23:59.313Z,8.76
2022-10-17T20:26:39.327Z,8.78
2022-10-17T20:28:15.144Z,8.83
2022-10-17T20:30:15.100Z,8.85
2022-10-17T20:32:15.143Z,8.77
2022-10-17T20:34:15.089Z,8.82
2022-10-17T20:36:15.114Z,8.72
2022-10-17T20:38:15.131Z,8.66
2022-10-17T20:40:34.945Z,8.73
2022-10-17T20:41:45.771Z,8.76
2022-10-17T20:43:45.767Z,8.79
2022-10-17T20:45:51.028Z,8.72
2022-10-17T20:47:48.217Z,8.72
2022-10-17T20:49:45.756Z,8.61
2022-10-17T20:51:45.782Z,8.76
2022-10-17T20:53:45.787Z,8.74
2022-10-17T20:57:01.070Z,8.71
2022-10-17T20:58:59.655Z,8.71
2022-10-17T21:00:59.582Z,8.63
2022-10-17T21:02:59.580Z,8.54
2022-10-17T21:04:59.604Z,8.52
2022-10-17T21:06:59.601Z,8.55
2022-10-17T21:08:59.586Z,8.53
2022-10-17T21:12:43.220Z,8.47
2022-10-17T21:14:34.349Z,8.43
2022-10-17T21:16:34.386Z,8.38
2022-10-17T21:18:34.325Z,8.37
2022-10-17T21:20:34.343Z,8.29
2022-10-17T21:22:34.355Z,8.31
2022-10-17T21:24:34.321Z,8.32
2022-10-17T21:27:33.134Z,8.35
2022-10-17T21:29:33.120Z,8.44
2022-10-17T21:31:33.164Z,8.37
2022-10-17T21:33:33.121Z,8.36
2022-10-17T21:35:33.122Z,8.34
2022-10-17T21:37:33.109Z,8.31
2022-10-17T21:39:33.157Z,8.34
2022-10-17T21:42:19.115Z,8.25
2022-10-17T21:44:19.154Z,8.22
2022-10-17T21:46:19.110Z,8.07
2022-10-17T21:48:19.182Z,8.04
2022-10-17T21:50:19.108Z,8.08
2022-10-17T21:52:19.136Z,8.09
2022-10-17T21:54:19.097Z,8.04
2022-10-17T21:56:19.123Z,8.05
2022-10-17T21:57:40.848Z,8.03
2022-10-17T21:59:40.842Z,8.01
2022-10-17T22:01:40.938Z,7.99
2022-10-17T22:03:42.573Z,7.95
2022-10-17T22:05:40.864Z,7.9
2022-10-17T22:07:40.854Z,7.84
2022-10-17T22:09:40.880Z,7.83
2022-10-17T22:12:50.308Z,7.82
2022-10-17T22:14:50.248Z,7.88
2022-10-17T22:16:50.259Z,7.86
2022-10-17T22:18:50.280Z,7.74
2022-10-17T22:20:50.270Z,7.69
2022-10-17T22:22:50.250Z,7.62
2022-10-17T22:24:50.273Z,7.63
2022-10-17T22:28:26.468Z,7.55
2022-10-17T22:30:26.406Z,7.5
2022-10-17T22:32:26.402Z,7.6
2022-10-17T22:34:26.455Z,7.57
2022-10-17T22:36:26.406Z,7.49
2022-10-17T22:38:26.520Z,7.46
2022-10-17T22:40:26.407Z,7.5
2022-10-17T22:43:05.566Z,7.52
2022-10-17T22:45:05.636Z,7.47
2022-10-17T22:47:05.579Z,7.44
2022-10-17T22:49:05.556Z,7.41
2022-10-17T22:51:05.577Z,7.28
2022-10-17T22:53:05.565Z,7.36
2022-10-17T22:55:05.602Z,7.24
2022-10-17T22:58:57.788Z,7.11
2022-10-17T23:00:57.837Z,7.13
2022-10-17T23:02:57.792Z,7.02
2022-10-17T23:04:57.762Z,7.01
2022-10-17T23:06:57.781Z,7.08
2022-10-17T23:08:57.756Z,7.05
2022-10-17T23:10:57.794Z,7
2022-10-17T23:13:41.402Z,6.92
2022-10-17T23:15:41.389Z,6.91
2022-10-17T23:17:41.451Z,6.95
2022-10-17T23:19:41.381Z,6.99
2022-10-17T23:21:41.407Z,7
2022-10-17T23:23:41.374Z,6.96
2022-10-17T23:25:41.379Z,6.89
2022-10-17T23:29:02.571Z,6.6
2022-10-17T23:31:02.529Z,6.67
2022-10-17T23:33:02.599Z,6.76
2022-10-17T23:35:02.522Z,6.73
2022-10-17T23:37:02.550Z,6.07
2022-10-17T23:39:02.530Z,6.01
2022-10-17T23:41:02.519Z,6.26
2022-10-17T23:44:19.294Z,6.33
2022-10-17T23:46:19.334Z,6.4
2022-10-17T23:48:19.316Z,6.38
2022-10-17T23:50:19.270Z,6.35
2022-10-17T23:52:19.323Z,6.19
2022-10-17T23:54:19.271Z,6.13
2022-10-17T23:56:19.294Z,6.22
2022-10-17T23:59:34.730Z,6.21
